First Ferry Viii — VRS4306 — position and weather

sailwx.info

Track history (hours):
 
Tides and Currents Weather Stations Pressure Air Temp Water Temp Dewpoint Dewpoint Depression Visibility Wind Speed Wind Dir Waves Ship Positions

First Ferry Viii

Last reported at 2015-May-22 16:33 UTC. Time now 2015-May-22 22:14 UTC.
Position N 22°17' E 114°10'.

Length 36 m; draft 1.8 m.

Type: High speed craft. MMSI: 477995030.

Date/timePositionNaut miles runAvg speedWind from/ knotsBaromVisibWave heightAir tempDewpointWater temp
2015-May-22 16:33N 22°17' E 114°10'8 7.7
2015-May-22 15:28N 22°14' E 114°02'8 9.1
2015-May-22 14:34N 22°17' E 114°10'5 4.4
2015-May-22 13:21N 22°16' E 114°04'4 5.7
2015-May-22 12:34N 22°18' E 114°08'1 0.4
2015-May-22 09:33N 22°17' E 114°10'6 3.8
2015-May-22 08:05N 22°15' E 114°04'610.6
2015-May-22 07:33N 22°17' E 114°10'5 3.4
2015-May-22 06:04N 22°16' E 114°04'5 9.7
2015-May-22 05:33N 22°17' E 114°10'3 2.7
2015-May-22 04:33N 22°19' E 114°12'0 0.0
2015-May-22 03:33N 22°19' E 114°12'2 1.7
2015-May-22 02:33N 22°18' E 114°11'3 3.0
2015-May-22 01:33N 22°20' E 114°09'7 5.0
2015-May-22 00:04N 22°15' E 114°03'713.1
2015-May-21 23:33N 22°17' E 114°09'0 0.0
2015-May-21 16:33N 22°18' E 114°09'6 4.7
2015-May-21 15:22N 22°15' E 114°04'6 7.2
2015-May-21 14:33N 22°17' E 114°10'5 4.3
2015-May-21 13:20N 22°16' E 114°04'4 5.8
2015-May-21 12:34N 22°18' E 114°09'1 0.3
2015-May-21 09:33N 22°17' E 114°10'5 3.0
2015-May-21 08:03N 22°16' E 114°05'5 9.2
2015-May-21 07:33N 22°17' E 114°10'0 0.0
2015-May-21 05:33N 22°17' E 114°10'3 2.7
2015-May-21 04:33N 22°19' E 114°12'0 0.0
2015-May-21 03:33N 22°19' E 114°12'0 0.0
2015-May-21 02:33N 22°19' E 114°12'0 0.0
2015-May-21 01:33N 22°19' E 114°12'3 1.5
2015-May-20 23:33N 22°18' E 114°09'0 0.1
2015-May-20 16:33N 22°18' E 114°09'6 4.7
2015-May-20 15:22N 22°15' E 114°04'6 7.1
2015-May-20 14:34N 22°17' E 114°10'6 4.9
2015-May-20 13:22N 22°15' E 114°04'5 6.7
2015-May-20 12:33N 22°18' E 114°09'5 1.9
2015-May-20 10:03N 22°16' E 114°04'510.3
2015-May-20 09:33N 22°17' E 114°10'5 3.1
2015-May-20 08:03N 22°16' E 114°05'5 9.5
2015-May-20 07:33N 22°17' E 114°10'5 3.2
2015-May-20 06:05N 22°16' E 114°05'5 9.0
2015-May-20 05:33N 22°17' E 114°10'3 2.5
2015-May-20 04:33N 22°19' E 114°12'0 0.0
2015-May-20 03:33N 22°19' E 114°12'0 0.0
2015-May-20 02:33N 22°19' E 114°12'3 2.8
2015-May-20 01:33N 22°20' E 114°09'2 1.2
2015-May-19 23:33N 22°17' E 114°09'0 0.0
2015-May-19 16:34N 22°17' E 114°09'5 4.3
2015-May-19 15:20N 22°16' E 114°04'5 6.8
2015-May-19 14:33N 22°17' E 114°10'6 4.6
2015-May-19 13:21N 22°16' E 114°04'5 6.3
2015-May-19 12:33N 22°18' E 114°09'1 0.3
2015-May-19 09:33N 22°17' E 114°10'5 3.2
2015-May-19 08:04N 22°16' E 114°05'5 9.5
2015-May-19 07:33N 22°17' E 114°10'6 3.8
2015-May-19 06:06N 22°15' E 114°04'610.4
2015-May-19 05:33N 22°17' E 114°10'3 2.5
2015-May-19 04:33N 22°19' E 114°12'0 0.0
2015-May-19 03:33N 22°19' E 114°12'0 0.0
2015-May-19 02:33N 22°19' E 114°12'0 0.0
2015-May-19 01:33N 22°19' E 114°12'3 1.4
2015-May-18 23:34N 22°18' E 114°09'0 0.1
2015-May-18 16:34N 22°17' E 114°09'6 5.0
2015-May-18 15:22N 22°15' E 114°04'6 7.5
2015-May-18 14:34N 22°17' E 114°10'4 3.4
2015-May-18 13:18N 22°16' E 114°05'3 4.3
2015-May-18 12:33N 22°18' E 114°08'1 0.4
2015-May-18 09:33N 22°17' E 114°10'5 3.1
2015-May-18 08:04N 22°16' E 114°05'5 9.0
2015-May-18 07:33N 22°17' E 114°10'5 3.5
2015-May-18 06:05N 22°16' E 114°04'510.0
2015-May-18 05:33N 22°17' E 114°10'3 2.5
2015-May-18 04:33N 22°19' E 114°12'0 0.0
2015-May-18 03:33N 22°19' E 114°12'0 0.0
2015-May-18 02:33N 22°19' E 114°12'3 2.8
2015-May-18 01:33N 22°20' E 114°09'7 4.8
2015-May-18 00:04N 22°15' E 114°03'612.6
2015-May-17 23:33N 22°17' E 114°09'0 0.0
2015-May-17 16:34N 22°18' E 114°09'5 4.5
2015-May-17 15:21N 22°15' E 114°04'6 7.0
2015-May-17 14:34N 22°17' E 114°10'5 4.1
2015-May-17 13:19N 22°16' E 114°04'6 8.5
2015-May-17 12:33N 22°18' E 114°11'1 1.3
2015-May-17 11:33N 22°19' E 114°12'10 6.7
2015-May-17 10:08N 22°16' E 114°02'712.9
2015-May-17 09:33N 22°17' E 114°10'5 2.0
2015-May-17 07:17N 22°16' E 114°05'5 6.5
2015-May-17 06:33N 22°17' E 114°10'5 4.2
2015-May-17 05:18N 22°16' E 114°04'5 7.1
2015-May-17 04:34N 22°17' E 114°10'6 4.1
2015-May-17 03:13N 22°15' E 114°04'5 8.2
2015-May-17 02:33N 22°17' E 114°09'5 3.8
2015-May-17 01:18N 22°16' E 114°05'7 9.4
2015-May-17 00:33N 22°18' E 114°12'2 2.2
2015-May-16 23:33N 22°17' E 114°10'0 0.0
2015-May-16 16:34N 22°17' E 114°10'6 5.6
2015-May-16 15:24N 22°15' E 114°03'6 7.7
2015-May-16 14:34N 22°17' E 114°10'5 4.4
2015-May-16 13:20N 22°15' E 114°04'4 5.5
2015-May-16 12:33N 22°17' E 114°08'1 0.4
2015-May-16 09:33N 22°17' E 114°10'0 0.0
2015-May-16 07:32N 22°17' E 114°10'0 0.0
2015-May-16 05:33N 22°17' E 114°10'0 0.0
2015-May-16 03:33N 22°17' E 114°10'1 0.9
2015-May-16 02:33N 22°17' E 114°11'3 3.0
2015-May-16 01:33N 22°20' E 114°09'2 1.2
2015-May-15 23:33N 22°17' E 114°10'0 0.0
2015-May-15 16:33N 22°17' E 114°09'6 5.6
2015-May-15 15:24N 22°15' E 114°03'7 7.8
2015-May-15 14:33N 22°17' E 114°10'6 4.6
2015-May-15 13:22N 22°15' E 114°04'5 6.3
2015-May-15 12:34N 22°18' E 114°09'1 0.2
2015-May-15 09:34N 22°17' E 114°10'0 0.0
2015-May-15 07:33N 22°17' E 114°10'0 0.0
2015-May-15 05:31N 22°17' E 114°10'3 2.8
2015-May-15 04:33N 22°19' E 114°12'0 0.0
2015-May-15 03:33N 22°19' E 114°12'0 0.0
2015-May-15 02:34N 22°19' E 114°12'3 2.8
2015-May-15 01:33N 22°18' E 114°09'5 4.3
2015-May-15 00:21N 22°15' E 114°04'5 6.8
2015-May-14 23:33N 22°17' E 114°09'0 0.0
2015-May-14 16:33N 22°17' E 114°10'6 4.7
2015-May-14 15:21N 22°15' E 114°04'6 7.1
2015-May-14 14:33N 22°17' E 114°10'5 3.8
2015-May-14 13:18N 22°16' E 114°05'5 6.3
2015-May-14 12:33N 22°17' E 114°10'4 3.4
2015-May-14 11:18N 22°16' E 114°05'4 2.4
2015-May-14 09:33N 22°17' E 114°10'0 0.0
2015-May-14 07:33N 22°17' E 114°10'3 2.6
2015-May-14 06:33N 22°19' E 114°12'0 0.1
2015-May-14 05:33N 22°19' E 114°12'0 0.0
2015-May-14 04:33N 22°19' E 114°12'0 0.0
2015-May-14 03:33N 22°19' E 114°12'1 1.4
2015-May-14 02:32N 22°18' E 114°11'1 1.4
2015-May-14 01:33N 22°17' E 114°09'5 4.0
2015-May-14 00:19N 22°16' E 114°04'5 6.7
2015-May-13 23:34N 22°17' E 114°10'0 0.0
2015-May-13 16:33N 22°17' E 114°09'7 5.6
2015-May-13 15:23N 22°15' E 114°03'7 8.0
2015-May-13 14:33N 22°17' E 114°10'5 4.4
2015-May-13 13:21N 22°16' E 114°04'5 6.9
2015-May-13 12:34N 22°17' E 114°10'5 4.3
2015-May-13 11:20N 22°16' E 114°04'5 3.0
2015-May-13 09:33N 22°17' E 114°10'5 3.5
2015-May-13 08:04N 22°16' E 114°04'510.4
2015-May-13 07:33N 22°17' E 114°10'3 2.7
2015-May-13 06:33N 22°19' E 114°12'0 0.0
2015-May-13 05:33N 22°19' E 114°12'0 0.0
2015-May-13 04:33N 22°19' E 114°12'0 0.0
2015-May-13 03:33N 22°19' E 114°12'0 0.0
2015-May-13 02:33N 22°19' E 114°12'3 2.6
2015-May-13 01:33N 22°17' E 114°10'6 4.6
2015-May-13 00:21N 22°15' E 114°04'5 6.6
2015-May-12 23:33N 22°17' E 114°09'0 0.0
2015-May-12 16:34N 22°17' E 114°09'  
Track history (hours):
 
Tides and Currents Weather Stations Pressure Air Temp Water Temp Dewpoint Dewpoint Depression Visibility Wind Speed Wind Dir Waves Ship Positions

First Ferry Viii

Last reported at 2015-May-22 16:33 UTC. Time now 2015-May-22 22:14 UTC.
Position N 22°17' E 114°10'.

Length 36 m; draft 1.8 m.

Type: High speed craft. MMSI: 477995030.

Date/timePositionNaut miles runAvg speedWind from/ knotsBaromVisibWave heightAir tempDewpointWater temp
2015-May-22 16:33N 22°17' E 114°10'8 7.7
2015-May-22 15:28N 22°14' E 114°02'8 9.1
2015-May-22 14:34N 22°17' E 114°10'5 4.4
2015-May-22 13:21N 22°16' E 114°04'4 5.7
2015-May-22 12:34N 22°18' E 114°08'1 0.4
2015-May-22 09:33N 22°17' E 114°10'6 3.8
2015-May-22 08:05N 22°15' E 114°04'610.6
2015-May-22 07:33N 22°17' E 114°10'5 3.4
2015-May-22 06:04N 22°16' E 114°04'5 9.7
2015-May-22 05:33N 22°17' E 114°10'3 2.7
2015-May-22 04:33N 22°19' E 114°12'0 0.0
2015-May-22 03:33N 22°19' E 114°12'2 1.7
2015-May-22 02:33N 22°18' E 114°11'3 3.0
2015-May-22 01:33N 22°20' E 114°09'7 5.0
2015-May-22 00:04N 22°15' E 114°03'713.1
2015-May-21 23:33N 22°17' E 114°09'0 0.0
2015-May-21 16:33N 22°18' E 114°09'6 4.7
2015-May-21 15:22N 22°15' E 114°04'6 7.2
2015-May-21 14:33N 22°17' E 114°10'5 4.3
2015-May-21 13:20N 22°16' E 114°04'4 5.8
2015-May-21 12:34N 22°18' E 114°09'1 0.3
2015-May-21 09:33N 22°17' E 114°10'5 3.0
2015-May-21 08:03N 22°16' E 114°05'5 9.2
2015-May-21 07:33N 22°17' E 114°10'0 0.0
2015-May-21 05:33N 22°17' E 114°10'3 2.7
2015-May-21 04:33N 22°19' E 114°12'0 0.0
2015-May-21 03:33N 22°19' E 114°12'0 0.0
2015-May-21 02:33N 22°19' E 114°12'0 0.0
2015-May-21 01:33N 22°19' E 114°12'3 1.5
2015-May-20 23:33N 22°18' E 114°09'0 0.1
2015-May-20 16:33N 22°18' E 114°09'6 4.7
2015-May-20 15:22N 22°15' E 114°04'6 7.1
2015-May-20 14:34N 22°17' E 114°10'6 4.9
2015-May-20 13:22N 22°15' E 114°04'5 6.7
2015-May-20 12:33N 22°18' E 114°09'5 1.9
2015-May-20 10:03N 22°16' E 114°04'510.3
2015-May-20 09:33N 22°17' E 114°10'5 3.1
2015-May-20 08:03N 22°16' E 114°05'5 9.5
2015-May-20 07:33N 22°17' E 114°10'5 3.2
2015-May-20 06:05N 22°16' E 114°05'5 9.0
2015-May-20 05:33N 22°17' E 114°10'3 2.5
2015-May-20 04:33N 22°19' E 114°12'0 0.0
2015-May-20 03:33N 22°19' E 114°12'0 0.0
2015-May-20 02:33N 22°19' E 114°12'3 2.8
2015-May-20 01:33N 22°20' E 114°09'2 1.2
2015-May-19 23:33N 22°17' E 114°09'0 0.0
2015-May-19 16:34N 22°17' E 114°09'5 4.3
2015-May-19 15:20N 22°16' E 114°04'5 6.8
2015-May-19 14:33N 22°17' E 114°10'6 4.6
2015-May-19 13:21N 22°16' E 114°04'5 6.3
2015-May-19 12:33N 22°18' E 114°09'1 0.3
2015-May-19 09:33N 22°17' E 114°10'5 3.2
2015-May-19 08:04N 22°16' E 114°05'5 9.5
2015-May-19 07:33N 22°17' E 114°10'6 3.8
2015-May-19 06:06N 22°15' E 114°04'610.4
2015-May-19 05:33N 22°17' E 114°10'3 2.5
2015-May-19 04:33N 22°19' E 114°12'0 0.0
2015-May-19 03:33N 22°19' E 114°12'0 0.0
2015-May-19 02:33N 22°19' E 114°12'0 0.0
2015-May-19 01:33N 22°19' E 114°12'3 1.4
2015-May-18 23:34N 22°18' E 114°09'0 0.1
2015-May-18 16:34N 22°17' E 114°09'6 5.0
2015-May-18 15:22N 22°15' E 114°04'6 7.5
2015-May-18 14:34N 22°17' E 114°10'4 3.4
2015-May-18 13:18N 22°16' E 114°05'3 4.3
2015-May-18 12:33N 22°18' E 114°08'1 0.4
2015-May-18 09:33N 22°17' E 114°10'5 3.1
2015-May-18 08:04N 22°16' E 114°05'5 9.0
2015-May-18 07:33N 22°17' E 114°10'5 3.5
2015-May-18 06:05N 22°16' E 114°04'510.0
2015-May-18 05:33N 22°17' E 114°10'3 2.5
2015-May-18 04:33N 22°19' E 114°12'0 0.0
2015-May-18 03:33N 22°19' E 114°12'0 0.0
2015-May-18 02:33N 22°19' E 114°12'3 2.8
2015-May-18 01:33N 22°20' E 114°09'7 4.8
2015-May-18 00:04N 22°15' E 114°03'612.6
2015-May-17 23:33N 22°17' E 114°09'0 0.0
2015-May-17 16:34N 22°18' E 114°09'5 4.5
2015-May-17 15:21N 22°15' E 114°04'6 7.0
2015-May-17 14:34N 22°17' E 114°10'5 4.1
2015-May-17 13:19N 22°16' E 114°04'6 8.5
2015-May-17 12:33N 22°18' E 114°11'1 1.3
2015-May-17 11:33N 22°19' E 114°12'10 6.7
2015-May-17 10:08N 22°16' E 114°02'712.9
2015-May-17 09:33N 22°17' E 114°10'5 2.0
2015-May-17 07:17N 22°16' E 114°05'5 6.5
2015-May-17 06:33N 22°17' E 114°10'5 4.2
2015-May-17 05:18N 22°16' E 114°04'5 7.1
2015-May-17 04:34N 22°17' E 114°10'6 4.1
2015-May-17 03:13N 22°15' E 114°04'5 8.2
2015-May-17 02:33N 22°17' E 114°09'5 3.8
2015-May-17 01:18N 22°16' E 114°05'7 9.4
2015-May-17 00:33N 22°18' E 114°12'2 2.2
2015-May-16 23:33N 22°17' E 114°10'0 0.0
2015-May-16 16:34N 22°17' E 114°10'6 5.6
2015-May-16 15:24N 22°15' E 114°03'6 7.7
2015-May-16 14:34N 22°17' E 114°10'5 4.4
2015-May-16 13:20N 22°15' E 114°04'4 5.5
2015-May-16 12:33N 22°17' E 114°08'1 0.4
2015-May-16 09:33N 22°17' E 114°10'0 0.0
2015-May-16 07:32N 22°17' E 114°10'0 0.0
2015-May-16 05:33N 22°17' E 114°10'0 0.0
2015-May-16 03:33N 22°17' E 114°10'1 0.9
2015-May-16 02:33N 22°17' E 114°11'3 3.0
2015-May-16 01:33N 22°20' E 114°09'2 1.2
2015-May-15 23:33N 22°17' E 114°10'0 0.0
2015-May-15 16:33N 22°17' E 114°09'6 5.6
2015-May-15 15:24N 22°15' E 114°03'7 7.8
2015-May-15 14:33N 22°17' E 114°10'6 4.6
2015-May-15 13:22N 22°15' E 114°04'5 6.3
2015-May-15 12:34N 22°18' E 114°09'1 0.2
2015-May-15 09:34N 22°17' E 114°10'0 0.0
2015-May-15 07:33N 22°17' E 114°10'0 0.0
2015-May-15 05:31N 22°17' E 114°10'3 2.8
2015-May-15 04:33N 22°19' E 114°12'0 0.0
2015-May-15 03:33N 22°19' E 114°12'0 0.0
2015-May-15 02:34N 22°19' E 114°12'3 2.8
2015-May-15 01:33N 22°18' E 114°09'5 4.3
2015-May-15 00:21N 22°15' E 114°04'5 6.8
2015-May-14 23:33N 22°17' E 114°09'0 0.0
2015-May-14 16:33N 22°17' E 114°10'6 4.7
2015-May-14 15:21N 22°15' E 114°04'6 7.1
2015-May-14 14:33N 22°17' E 114°10'5 3.8
2015-May-14 13:18N 22°16' E 114°05'5 6.3
2015-May-14 12:33N 22°17' E 114°10'4 3.4
2015-May-14 11:18N 22°16' E 114°05'4 2.4
2015-May-14 09:33N 22°17' E 114°10'0 0.0
2015-May-14 07:33N 22°17' E 114°10'3 2.6
2015-May-14 06:33N 22°19' E 114°12'0 0.1
2015-May-14 05:33N 22°19' E 114°12'0 0.0
2015-May-14 04:33N 22°19' E 114°12'0 0.0
2015-May-14 03:33N 22°19' E 114°12'1 1.4
2015-May-14 02:32N 22°18' E 114°11'1 1.4
2015-May-14 01:33N 22°17' E 114°09'5 4.0
2015-May-14 00:19N 22°16' E 114°04'5 6.7
2015-May-13 23:34N 22°17' E 114°10'0 0.0
2015-May-13 16:33N 22°17' E 114°09'7 5.6
2015-May-13 15:23N 22°15' E 114°03'7 8.0
2015-May-13 14:33N 22°17' E 114°10'5 4.4
2015-May-13 13:21N 22°16' E 114°04'5 6.9
2015-May-13 12:34N 22°17' E 114°10'5 4.3
2015-May-13 11:20N 22°16' E 114°04'5 3.0
2015-May-13 09:33N 22°17' E 114°10'5 3.5
2015-May-13 08:04N 22°16' E 114°04'510.4
2015-May-13 07:33N 22°17' E 114°10'3 2.7
2015-May-13 06:33N 22°19' E 114°12'0 0.0
2015-May-13 05:33N 22°19' E 114°12'0 0.0
2015-May-13 04:33N 22°19' E 114°12'0 0.0
2015-May-13 03:33N 22°19' E 114°12'0 0.0
2015-May-13 02:33N 22°19' E 114°12'3 2.6
2015-May-13 01:33N 22°17' E 114°10'6 4.6
2015-May-13 00:21N 22°15' E 114°04'5 6.6
2015-May-12 23:33N 22°17' E 114°09'0 0.0
2015-May-12 16:34N 22°17' E 114°09'  

Dump ship's entire track history